Kezdőlap
METAR-TAF:

METAR-TAF

Repülőterek :

Bejrút, Libanon

földrajzi szélesség: 33-49N, földrajzi hosszúság: 035-29E, magasság: 29 m

METAR: hiányzik

Idő: 17:30 (14:30 UTC)

Előrejelzés

A jelentés 4 órával és 30 perccel ezelõtt készült, 10:00 UTC
Az előrejelzés 23-én 12 óra UTC és 24-én 18 óra UTC között érvényes
Különbözõ irányokból fújó szél 2 kt
Látótávolság: 8000 m
Kevés felhő 2600 lábon
23-én 18 óra UTC és 23-én 21 óra UTC között fokozatosan kialakuló
Észak-északnyugati szél 5 kt
23-én 18 óra UTC és 24-én 06 óra UTC között ideiglenes
Látótávolság: 5000 m
Párásság

TAF: OLBA 231000Z 2312/2418 VRB02KT 8000 FEW026 BECMG 2318/2321 33005KT TEMPO 2318/2406 5000 BR

Meteorológiai megfigyelések és előrejelzések több, mint 4000 repülőtéren (METAR és TAF jelentéseket).

A térképen piros és sárga pontok jelzik az elérhető meteorológiai állomásokat.

Mozgassa az egeret a pont fölött, hogy megjelenjen az állomás neve.

Azután kattintson az időjárási megfigyelések és előrejelzések megtekintéséhez.

A térkép megváltoztatása: kattintson a fekete keresztel jelölt zöld gombra ráközelítéshez, a vonallal jelölt zöld gombra távolításhoz, vagy a zöld nyilakra a szomszédos térképek eléréséhez.


METAR-TAF: